Indiana Highway — JMVS — position and weather

sailwx.info

Track history (hours):
 
Tides and Currents Weather Stations Pressure Air Temp Water Temp Dewpoint Dewpoint Depression Visibility Wind Speed Wind Dir Waves Ship Positions

Indiana Highway

Last reported at 2017-Nov-07 17:09 UTC. Time now 2017-Nov-19 05:06 UTC.
Position N 38°33' W 123°56'.
Warning: this ship's position is 11 days out of date.

Length 199.9 m; beam 32.2 m.

Type: Cargo ship. MMSI: 432433000.

Date/timePositionNaut miles runAvg speedWind from/ knotsBaromVisibWave heightAir tempDewpointWater temp
2017-Nov-07 17:09N 38°33' W 123°56'317.0
2017-Nov-07 16:58N 38°31' W 123°53'817.3
2017-Nov-07 16:30N 38°26' W 123°45'917.4
2017-Nov-07 16:00N 38°20' W 123°37'816.7
2017-Nov-07 15:30N 38°15' W 123°29'815.4
2017-Nov-07 15:00N 38°10' W 123°21'510.7
2017-Nov-07 14:30N 38°06' W 123°17'611.4
2017-Nov-07 14:00N 38°01' W 123°12'611.3
2017-Nov-07 13:30N 37°58' W 123°06'611.5
2017-Nov-07 13:00N 37°55' W 123°00'611.6
2017-Nov-07 12:30N 37°52' W 122°54'611.8
2017-Nov-07 12:00N 37°49' W 122°47'611.7
2017-Nov-07 11:30N 37°45' W 122°41'611.7
2017-Nov-07 11:00N 37°47' W 122°34'714.0
2017-Nov-07 10:30N 37°51' W 122°27'510.4
2017-Nov-07 10:01N 37°56' W 122°27'612.0
2017-Nov-07 09:30N 38°01' W 122°24'612.4
2017-Nov-07 09:00N 38°04' W 122°16'5 9.0
2017-Nov-07 08:30N 38°03' W 122°11'2 4.0
2017-Nov-07 08:00N 38°02' W 122°08'0 0.0
2017-Nov-07 07:30N 38°02' W 122°08'0 0.0
2017-Nov-07 07:00N 38°02' W 122°08'0 0.0
2017-Nov-07 06:30N 38°02' W 122°08'0 0.0
2017-Nov-07 06:00N 38°02' W 122°08'0 0.0
2017-Nov-07 05:30N 38°02' W 122°08'0 0.0
2017-Nov-07 05:00N 38°02' W 122°08'0 0.0
2017-Nov-07 04:30N 38°02' W 122°08'0 0.0
2017-Nov-07 04:00N 38°02' W 122°08'0 0.0
2017-Nov-07 03:18N 38°02' W 122°08'0 0.0
2017-Nov-07 03:00N 38°02' W 122°08'0 0.0
2017-Nov-07 02:30N 38°02' W 122°08'0 0.0
2017-Nov-07 02:00N 38°02' W 122°08'0 0.0
2017-Nov-07 01:30N 38°02' W 122°08'0 0.0
2017-Nov-07 01:00N 38°02' W 122°08'0 0.0
2017-Nov-07 00:30N 38°02' W 122°08'42 1.9
2017-Nov-06 02:30N 37°38' W 122°51'4 8.3
2017-Nov-06 02:00N 37°36' W 122°55'5 9.3
2017-Nov-06 01:30N 37°33' W 123°00'5 9.5
2017-Nov-06 01:01N 37°31' W 123°05'713.0
2017-Nov-06 00:28N 37°26' W 123°12'1610.3
2017-Nov-05 22:52N 37°12' W 123°23'0 0.4
2017-Nov-05 22:11N 37°12' W 123°23'0 0.3
2017-Nov-05 21:56N 37°12' W 123°23'0 0.3
2017-Nov-05 21:30N 37°12' W 123°23'0 0.3
2017-Nov-05 20:52N 37°13' W 123°23'1 0.9
2017-Nov-05 19:58N 37°12' W 123°24'3 3.0
2017-Nov-05 19:07N 37°10' W 123°26'0 0.5
2017-Nov-05 18:56N 37°10' W 123°26'0 0.6
2017-Nov-05 18:15N 37°11' W 123°26'0 0.4
2017-Nov-05 17:59N 37°11' W 123°26'0 0.6
2017-Nov-05 17:28N 37°11' W 123°26'0 0.8
2017-Nov-05 16:59N 37°11' W 123°26'0 0.8
2017-Nov-05 16:27N 37°12' W 123°26'0 0.6
2017-Nov-05 15:55N 37°12' W 123°26'17 1.3
2017-Nov-05 02:08N 37°07' W 123°05'316.0
2017-Nov-05 01:56N 37°04' W 123°03'816.2
2017-Nov-05 01:25N 36°57' W 122°58'816.0
2017-Nov-05 00:55N 36°50' W 122°53'715.9
2017-Nov-05 00:30N 36°45' W 122°49'815.5
2017-Nov-04 23:59N 36°38' W 122°44'815.7
2017-Nov-04 23:30N 36°31' W 122°39'815.5
2017-Nov-04 23:00N 36°25' W 122°34'815.4
2017-Nov-04 22:30N 36°18' W 122°29'815.3
2017-Nov-04 22:00N 36°11' W 122°24'815.5
2017-Nov-04 21:30N 36°05' W 122°19'815.9
2017-Nov-04 21:00N 35°58' W 122°14'816.2
2017-Nov-04 20:30N 35°51' W 122°09'816.5
2017-Nov-04 20:00N 35°44' W 122°04'816.2
2017-Nov-04 19:30N 35°37' W 121°59'816.2
2017-Nov-04 19:00N 35°30' W 121°54'2716.6
2017-Nov-04 17:24N 35°07' W 121°38'716.8
2017-Nov-04 16:59N 35°01' W 121°33'1417.1
2017-Nov-04 16:09N 34°48' W 121°24'217.7
2017-Nov-04 16:00N 34°46' W 121°23'917.3
2017-Nov-04 15:30N 34°39' W 121°18'817.0
2017-Nov-04 15:00N 34°31' W 121°12'816.8
2017-Nov-04 14:30N 34°24' W 121°07'816.8
2017-Nov-04 14:00N 34°17' W 121°02'917.2
2017-Nov-04 13:30N 34°09' W 120°57'917.2
2017-Nov-04 12:59N 34°02' W 120°51'816.9
2017-Nov-04 12:30N 33°55' W 120°46'916.8
2017-Nov-04 12:00N 33°50' W 120°38'816.8
2017-Nov-04 11:30N 33°45' W 120°30'817.0
2017-Nov-04 11:00N 33°41' W 120°21'816.7
2017-Nov-04 10:30N 33°37' W 120°12'816.3
2017-Nov-04 10:00N 33°38' W 120°02'917.3
2017-Nov-04 09:30N 33°39' W 119°52'917.5
2017-Nov-04 09:00N 33°40' W 119°41'917.5
2017-Nov-04 08:30N 33°41' W 119°31'917.3
2017-Nov-04 07:58N 33°41' W 119°20'917.4
2017-Nov-04 07:26N 33°43' W 119°09'715.6
2017-Nov-04 07:00N 33°42' W 119°01'612.8
2017-Nov-04 06:30N 33°41' W 118°53'612.8
2017-Nov-04 06:00N 33°40' W 118°46'712.8
2017-Nov-04 05:30N 33°38' W 118°38'612.9
2017-Nov-04 05:00N 33°37' W 118°30'713.0
2017-Nov-04 04:29N 33°36' W 118°22'710.3
2017-Nov-04 03:48N 33°38' W 118°14'8 2.0
2017-Nov-03 23:32N 33°46' W 118°13'0 0.0
2017-Nov-03 07:22N 33°46' W 118°13'7 5.9
2017-Nov-03 06:13N 33°39' W 118°11'4 7.3
2017-Nov-03 05:38N 33°37' W 118°15'1 6.7
2017-Nov-03 05:30N 33°36' W 118°16'8 8.7
2017-Nov-03 04:34N 33°38' W 118°25'1 9.2
2017-Nov-03 04:30N 33°38' W 118°26'4 9.1
2017-Nov-03 04:00N 33°41' W 118°31'5 9.1
2017-Nov-03 03:30N 33°43' W 118°35'5 9.3
2017-Nov-03 03:00N 33°45' W 118°40'510.2
2017-Nov-03 02:30N 33°44' W 118°47'4 8.5
2017-Nov-03 02:00N 33°44' W 118°52'611.0
2017-Nov-03 01:30N 33°43' W 118°58'611.1
2017-Nov-03 01:00N 33°43' W 119°05'714.5
2017-Nov-03 00:31N 33°42' W 119°13'816.6
2017-Nov-03 00:00N 33°41' W 119°24'916.7
2017-Nov-02 23:29N 33°39' W 119°34'817.3
2017-Nov-02 22:59N 33°38' W 119°44'1016.6
2017-Nov-02 22:25N 33°37' W 119°55'817.3
2017-Nov-02 21:59N 33°36' W 120°04'916.6
2017-Nov-02 21:27N 33°36' W 120°15'716.4
2017-Nov-02 21:00N 33°36' W 120°24'816.3
2017-Nov-02 20:30N 33°36' W 120°33'816.4
2017-Nov-02 20:01N 33°36' W 120°43'816.1
2017-Nov-02 19:31N 33°36' W 120°53'816.6
2017-Nov-02 19:01N 33°36' W 121°03'816.6
2017-Nov-02 18:30N 33°36' W 121°13'816.8
2017-Nov-02 18:00N 33°37' W 121°23'817.0
2017-Nov-02 17:30N 33°36' W 121°33'  
Track history (hours):
 
Tides and Currents Weather Stations Pressure Air Temp Water Temp Dewpoint Dewpoint Depression Visibility Wind Speed Wind Dir Waves Ship Positions

Indiana Highway

Last reported at 2017-Nov-07 17:09 UTC. Time now 2017-Nov-19 05:06 UTC.
Position N 38°33' W 123°56'.
Warning: this ship's position is 11 days out of date.

Length 199.9 m; beam 32.2 m.

Type: Cargo ship. MMSI: 432433000.

Date/timePositionNaut miles runAvg speedWind from/ knotsBaromVisibWave heightAir tempDewpointWater temp
2017-Nov-07 17:09N 38°33' W 123°56'317.0
2017-Nov-07 16:58N 38°31' W 123°53'817.3
2017-Nov-07 16:30N 38°26' W 123°45'917.4
2017-Nov-07 16:00N 38°20' W 123°37'816.7
2017-Nov-07 15:30N 38°15' W 123°29'815.4
2017-Nov-07 15:00N 38°10' W 123°21'510.7
2017-Nov-07 14:30N 38°06' W 123°17'611.4
2017-Nov-07 14:00N 38°01' W 123°12'611.3
2017-Nov-07 13:30N 37°58' W 123°06'611.5
2017-Nov-07 13:00N 37°55' W 123°00'611.6
2017-Nov-07 12:30N 37°52' W 122°54'611.8
2017-Nov-07 12:00N 37°49' W 122°47'611.7
2017-Nov-07 11:30N 37°45' W 122°41'611.7
2017-Nov-07 11:00N 37°47' W 122°34'714.0
2017-Nov-07 10:30N 37°51' W 122°27'510.4
2017-Nov-07 10:01N 37°56' W 122°27'612.0
2017-Nov-07 09:30N 38°01' W 122°24'612.4
2017-Nov-07 09:00N 38°04' W 122°16'5 9.0
2017-Nov-07 08:30N 38°03' W 122°11'2 4.0
2017-Nov-07 08:00N 38°02' W 122°08'0 0.0
2017-Nov-07 07:30N 38°02' W 122°08'0 0.0
2017-Nov-07 07:00N 38°02' W 122°08'0 0.0
2017-Nov-07 06:30N 38°02' W 122°08'0 0.0
2017-Nov-07 06:00N 38°02' W 122°08'0 0.0
2017-Nov-07 05:30N 38°02' W 122°08'0 0.0
2017-Nov-07 05:00N 38°02' W 122°08'0 0.0
2017-Nov-07 04:30N 38°02' W 122°08'0 0.0
2017-Nov-07 04:00N 38°02' W 122°08'0 0.0
2017-Nov-07 03:18N 38°02' W 122°08'0 0.0
2017-Nov-07 03:00N 38°02' W 122°08'0 0.0
2017-Nov-07 02:30N 38°02' W 122°08'0 0.0
2017-Nov-07 02:00N 38°02' W 122°08'0 0.0
2017-Nov-07 01:30N 38°02' W 122°08'0 0.0
2017-Nov-07 01:00N 38°02' W 122°08'0 0.0
2017-Nov-07 00:30N 38°02' W 122°08'42 1.9
2017-Nov-06 02:30N 37°38' W 122°51'4 8.3
2017-Nov-06 02:00N 37°36' W 122°55'5 9.3
2017-Nov-06 01:30N 37°33' W 123°00'5 9.5
2017-Nov-06 01:01N 37°31' W 123°05'713.0
2017-Nov-06 00:28N 37°26' W 123°12'1610.3
2017-Nov-05 22:52N 37°12' W 123°23'0 0.4
2017-Nov-05 22:11N 37°12' W 123°23'0 0.3
2017-Nov-05 21:56N 37°12' W 123°23'0 0.3
2017-Nov-05 21:30N 37°12' W 123°23'0 0.3
2017-Nov-05 20:52N 37°13' W 123°23'1 0.9
2017-Nov-05 19:58N 37°12' W 123°24'3 3.0
2017-Nov-05 19:07N 37°10' W 123°26'0 0.5
2017-Nov-05 18:56N 37°10' W 123°26'0 0.6
2017-Nov-05 18:15N 37°11' W 123°26'0 0.4
2017-Nov-05 17:59N 37°11' W 123°26'0 0.6
2017-Nov-05 17:28N 37°11' W 123°26'0 0.8
2017-Nov-05 16:59N 37°11' W 123°26'0 0.8
2017-Nov-05 16:27N 37°12' W 123°26'0 0.6
2017-Nov-05 15:55N 37°12' W 123°26'17 1.3
2017-Nov-05 02:08N 37°07' W 123°05'316.0
2017-Nov-05 01:56N 37°04' W 123°03'816.2
2017-Nov-05 01:25N 36°57' W 122°58'816.0
2017-Nov-05 00:55N 36°50' W 122°53'715.9
2017-Nov-05 00:30N 36°45' W 122°49'815.5
2017-Nov-04 23:59N 36°38' W 122°44'815.7
2017-Nov-04 23:30N 36°31' W 122°39'815.5
2017-Nov-04 23:00N 36°25' W 122°34'815.4
2017-Nov-04 22:30N 36°18' W 122°29'815.3
2017-Nov-04 22:00N 36°11' W 122°24'815.5
2017-Nov-04 21:30N 36°05' W 122°19'815.9
2017-Nov-04 21:00N 35°58' W 122°14'816.2
2017-Nov-04 20:30N 35°51' W 122°09'816.5
2017-Nov-04 20:00N 35°44' W 122°04'816.2
2017-Nov-04 19:30N 35°37' W 121°59'816.2
2017-Nov-04 19:00N 35°30' W 121°54'2716.6
2017-Nov-04 17:24N 35°07' W 121°38'716.8
2017-Nov-04 16:59N 35°01' W 121°33'1417.1
2017-Nov-04 16:09N 34°48' W 121°24'217.7
2017-Nov-04 16:00N 34°46' W 121°23'917.3
2017-Nov-04 15:30N 34°39' W 121°18'817.0
2017-Nov-04 15:00N 34°31' W 121°12'816.8
2017-Nov-04 14:30N 34°24' W 121°07'816.8
2017-Nov-04 14:00N 34°17' W 121°02'917.2
2017-Nov-04 13:30N 34°09' W 120°57'917.2
2017-Nov-04 12:59N 34°02' W 120°51'816.9
2017-Nov-04 12:30N 33°55' W 120°46'916.8
2017-Nov-04 12:00N 33°50' W 120°38'816.8
2017-Nov-04 11:30N 33°45' W 120°30'817.0
2017-Nov-04 11:00N 33°41' W 120°21'816.7
2017-Nov-04 10:30N 33°37' W 120°12'816.3
2017-Nov-04 10:00N 33°38' W 120°02'917.3
2017-Nov-04 09:30N 33°39' W 119°52'917.5
2017-Nov-04 09:00N 33°40' W 119°41'917.5
2017-Nov-04 08:30N 33°41' W 119°31'917.3
2017-Nov-04 07:58N 33°41' W 119°20'917.4
2017-Nov-04 07:26N 33°43' W 119°09'715.6
2017-Nov-04 07:00N 33°42' W 119°01'612.8
2017-Nov-04 06:30N 33°41' W 118°53'612.8
2017-Nov-04 06:00N 33°40' W 118°46'712.8
2017-Nov-04 05:30N 33°38' W 118°38'612.9
2017-Nov-04 05:00N 33°37' W 118°30'713.0
2017-Nov-04 04:29N 33°36' W 118°22'710.3
2017-Nov-04 03:48N 33°38' W 118°14'8 2.0
2017-Nov-03 23:32N 33°46' W 118°13'0 0.0
2017-Nov-03 07:22N 33°46' W 118°13'7 5.9
2017-Nov-03 06:13N 33°39' W 118°11'4 7.3
2017-Nov-03 05:38N 33°37' W 118°15'1 6.7
2017-Nov-03 05:30N 33°36' W 118°16'8 8.7
2017-Nov-03 04:34N 33°38' W 118°25'1 9.2
2017-Nov-03 04:30N 33°38' W 118°26'4 9.1
2017-Nov-03 04:00N 33°41' W 118°31'5 9.1
2017-Nov-03 03:30N 33°43' W 118°35'5 9.3
2017-Nov-03 03:00N 33°45' W 118°40'510.2
2017-Nov-03 02:30N 33°44' W 118°47'4 8.5
2017-Nov-03 02:00N 33°44' W 118°52'611.0
2017-Nov-03 01:30N 33°43' W 118°58'611.1
2017-Nov-03 01:00N 33°43' W 119°05'714.5
2017-Nov-03 00:31N 33°42' W 119°13'816.6
2017-Nov-03 00:00N 33°41' W 119°24'916.7
2017-Nov-02 23:29N 33°39' W 119°34'817.3
2017-Nov-02 22:59N 33°38' W 119°44'1016.6
2017-Nov-02 22:25N 33°37' W 119°55'817.3
2017-Nov-02 21:59N 33°36' W 120°04'916.6
2017-Nov-02 21:27N 33°36' W 120°15'716.4
2017-Nov-02 21:00N 33°36' W 120°24'816.3
2017-Nov-02 20:30N 33°36' W 120°33'816.4
2017-Nov-02 20:01N 33°36' W 120°43'816.1
2017-Nov-02 19:31N 33°36' W 120°53'816.6
2017-Nov-02 19:01N 33°36' W 121°03'816.6
2017-Nov-02 18:30N 33°36' W 121°13'816.8
2017-Nov-02 18:00N 33°37' W 121°23'817.0
2017-Nov-02 17:30N 33°36' W 121°33'  

Dump ship's entire track history